createdAt,value
2017-08-24T00:00:08.917Z,3.43
2017-08-24T00:02:35.010Z,3.12
2017-08-24T00:05:01.033Z,3.17
2017-08-24T00:07:27.054Z,3.05
2017-08-24T00:09:53.125Z,3.13
2017-08-24T00:12:19.178Z,3.00
2017-08-24T00:14:45.207Z,3.60
2017-08-24T00:17:11.271Z,2.75
2017-08-24T00:19:37.294Z,3.40
2017-08-24T00:22:03.396Z,3.00
2017-08-24T00:24:29.475Z,3.00
2017-08-24T00:26:55.549Z,3.30
2017-08-24T00:29:21.579Z,3.12
2017-08-24T00:31:47.836Z,3.65
2017-08-24T00:34:13.914Z,3.22
2017-08-24T00:36:39.973Z,3.03
2017-08-24T00:39:06.037Z,3.33
2017-08-24T00:41:32.066Z,3.17
2017-08-24T00:43:58.101Z,2.87
2017-08-24T00:46:24.189Z,3.22
2017-08-24T00:48:50.240Z,2.80
2017-08-24T00:51:16.285Z,3.13
2017-08-24T00:53:42.358Z,2.90
2017-08-24T00:56:08.418Z,3.20
2017-08-24T00:58:34.458Z,3.10
2017-08-24T01:01:00.505Z,3.30
2017-08-24T01:03:26.556Z,2.90
2017-08-24T01:05:52.663Z,3.00
2017-08-24T01:08:18.733Z,3.10
2017-08-24T01:10:44.746Z,3.50
2017-08-24T01:13:11.010Z,2.90
2017-08-24T01:15:37.077Z,3.00
2017-08-24T01:18:03.141Z,2.60
2017-08-24T01:20:29.386Z,3.10
2017-08-24T01:22:55.409Z,3.20
2017-08-24T01:25:21.474Z,3.10
2017-08-24T01:27:47.518Z,3.30
2017-08-24T01:30:13.561Z,3.10
2017-08-24T01:32:39.607Z,2.90
2017-08-24T01:35:05.643Z,3.12
2017-08-24T01:37:31.710Z,3.28
2017-08-24T01:39:57.998Z,2.70
2017-08-24T01:42:24.140Z,3.20
2017-08-24T01:44:50.214Z,3.37
2017-08-24T01:47:16.345Z,3.10
2017-08-24T01:49:42.403Z,3.10
2017-08-24T01:52:08.447Z,3.00
2017-08-24T01:54:34.494Z,2.70
2017-08-24T01:57:00.530Z,3.30
2017-08-24T01:59:26.562Z,2.80
2017-08-24T02:01:52.630Z,3.10
2017-08-24T02:04:18.659Z,3.17
2017-08-24T02:06:44.706Z,3.00
2017-08-24T02:09:10.723Z,2.80
2017-08-24T02:11:36.744Z,2.95
2017-08-24T02:14:02.802Z,2.80
2017-08-24T02:16:28.842Z,3.45
2017-08-24T02:18:54.882Z,3.03
2017-08-24T02:21:20.966Z,3.00
2017-08-24T02:23:47.013Z,2.90
2017-08-24T02:26:13.062Z,3.10
2017-08-24T02:28:39.129Z,3.05
2017-08-24T02:31:05.157Z,3.20
2017-08-24T02:33:31.218Z,3.10
2017-08-24T02:35:57.284Z,3.00
2017-08-24T02:38:23.304Z,3.40
2017-08-24T02:40:49.351Z,3.03
2017-08-24T02:43:15.661Z,3.70
2017-08-24T02:45:41.678Z,3.30
2017-08-24T02:48:07.720Z,3.10
2017-08-24T02:50:33.758Z,3.20
2017-08-24T02:52:59.847Z,3.30
2017-08-24T02:55:26.213Z,3.50
2017-08-24T02:57:52.259Z,3.58
2017-08-24T03:00:18.389Z,3.00
2017-08-24T03:02:44.860Z,3.53
2017-08-24T03:05:11.114Z,3.20
2017-08-24T03:07:37.158Z,3.33
2017-08-24T03:10:03.198Z,4.15
2017-08-24T03:12:29.290Z,4.30
2017-08-24T03:14:55.318Z,3.87
2017-08-24T03:17:21.371Z,4.30
2017-08-24T03:19:47.440Z,3.80
2017-08-24T03:22:13.473Z,4.45
2017-08-24T03:24:39.486Z,4.20
2017-08-24T03:27:05.536Z,4.10
2017-08-24T03:29:31.574Z,4.00
2017-08-24T03:31:57.624Z,4.10
2017-08-24T03:34:23.665Z,4.60
2017-08-24T03:36:49.693Z,4.10
2017-08-24T03:39:15.713Z,3.93
2017-08-24T03:41:41.769Z,4.43
2017-08-24T03:44:07.793Z,4.10
2017-08-24T03:46:33.854Z,4.30
2017-08-24T03:48:59.902Z,4.20
2017-08-24T03:51:25.923Z,3.60
2017-08-24T03:53:51.963Z,4.30
2017-08-24T03:56:18.566Z,4.00
2017-08-24T03:58:44.626Z,4.30
2017-08-24T04:01:10.673Z,4.30
2017-08-24T04:03:36.938Z,4.70
2017-08-24T04:06:02.958Z,4.30
2017-08-24T04:08:29.005Z,4.60
2017-08-24T04:10:55.104Z,4.25
2017-08-24T04:13:21.155Z,4.72
2017-08-24T04:15:47.446Z,4.40
2017-08-24T04:18:13.504Z,5.10
2017-08-24T04:20:39.534Z,4.60
2017-08-24T04:23:05.598Z,4.50
2017-08-24T04:25:31.690Z,4.78
2017-08-24T04:27:57.738Z,4.65
2017-08-24T04:30:23.779Z,4.35
2017-08-24T04:32:49.825Z,4.43
2017-08-24T04:35:15.851Z,4.75
2017-08-24T04:37:41.928Z,4.62
2017-08-24T04:40:08.014Z,5.20
2017-08-24T04:42:34.050Z,4.75
2017-08-24T04:45:00.224Z,5.20
2017-08-24T04:47:26.269Z,5.37
2017-08-24T04:49:52.308Z,5.47
2017-08-24T04:52:18.415Z,5.15
2017-08-24T04:54:44.457Z,5.90
2017-08-24T04:57:10.482Z,5.10
2017-08-24T04:59:36.766Z,4.90
2017-08-24T05:02:03.102Z,5.15
2017-08-24T05:04:29.205Z,5.30
2017-08-24T05:06:55.267Z,5.70
2017-08-24T05:09:21.310Z,5.20
2017-08-24T05:11:47.361Z,5.10
2017-08-24T05:14:13.466Z,5.30
2017-08-24T05:16:39.486Z,6.07
2017-08-24T05:19:05.609Z,5.30
2017-08-24T05:21:31.641Z,5.50
2017-08-24T05:23:57.664Z,5.60
2017-08-24T05:26:23.705Z,5.70
2017-08-24T05:28:49.746Z,5.80
2017-08-24T05:31:15.770Z,6.18
2017-08-24T05:33:41.858Z,5.90
2017-08-24T05:36:07.931Z,6.07
2017-08-24T05:38:33.965Z,5.60
2017-08-24T05:41:00.023Z,5.87
2017-08-24T05:43:26.118Z,6.07
2017-08-24T05:45:52.288Z,5.60
2017-08-24T05:48:18.655Z,6.13
2017-08-24T05:50:44.702Z,6.03
2017-08-24T05:53:10.742Z,6.30
2017-08-24T05:55:37.018Z,5.97
2017-08-24T05:58:03.058Z,6.00
2017-08-24T06:00:29.112Z,6.12
2017-08-24T06:02:55.147Z,6.00
2017-08-24T06:05:21.186Z,5.70
2017-08-24T06:07:47.228Z,6.28
2017-08-24T06:10:13.726Z,5.87
2017-08-24T06:12:39.750Z,6.20
2017-08-24T06:15:05.806Z,5.57
2017-08-24T06:17:31.866Z,6.37
2017-08-24T06:19:57.889Z,6.18
2017-08-24T06:22:23.909Z,6.40
2017-08-24T06:24:49.935Z,6.60
2017-08-24T06:27:15.979Z,7.30
2017-08-24T06:29:42.010Z,6.93
2017-08-24T06:32:08.040Z,6.30
2017-08-24T06:34:34.390Z,6.55
2017-08-24T06:37:00.423Z,7.37
2017-08-24T06:39:26.454Z,6.40
2017-08-24T06:41:52.540Z,6.60
2017-08-24T06:44:18.560Z,6.55
2017-08-24T06:46:44.726Z,7.50
2017-08-24T06:49:11.155Z,7.00
2017-08-24T06:51:37.174Z,8.10
2017-08-24T06:54:03.273Z,7.90
2017-08-24T06:56:29.292Z,7.57
2017-08-24T06:58:55.322Z,8.80
2017-08-24T07:01:21.376Z,8.02
2017-08-24T07:03:47.413Z,7.07
2017-08-24T07:06:13.765Z,8.15
2017-08-24T07:08:39.802Z,7.70
2017-08-24T07:11:05.866Z,7.60
2017-08-24T07:13:31.941Z,7.60
2017-08-24T07:15:58.038Z,7.03
2017-08-24T07:18:24.125Z,8.10
2017-08-24T07:20:50.186Z,8.30
2017-08-24T07:23:16.262Z,8.80
2017-08-24T07:25:42.282Z,8.45
2017-08-24T07:28:08.323Z,8.25
2017-08-24T07:30:34.339Z,7.65
2017-08-24T07:33:00.357Z,7.90
2017-08-24T07:35:26.900Z,8.52
2017-08-24T07:37:53.014Z,9.75
2017-08-24T07:40:19.026Z,8.35
2017-08-24T07:42:45.063Z,9.18
2017-08-24T07:45:11.115Z,9.55
2017-08-24T07:47:37.150Z,9.70
2017-08-24T07:50:03.180Z,10.63
2017-08-24T07:52:29.246Z,11.70
2017-08-24T07:54:55.310Z,10.75
2017-08-24T07:57:21.370Z,11.07
2017-08-24T07:59:47.414Z,10.82
2017-08-24T08:02:13.459Z,10.82
2017-08-24T08:04:39.502Z,11.30
2017-08-24T08:07:06.116Z,11.38
2017-08-24T08:09:32.166Z,11.30
2017-08-24T08:11:58.231Z,10.82
2017-08-24T08:14:24.278Z,18.27
2017-08-24T08:16:50.330Z,14.93
2017-08-24T08:19:16.403Z,180.57
2017-08-24T08:21:42.530Z,15.88
2017-08-24T08:24:08.575Z,14.55
2017-08-24T08:26:34.637Z,16.75
2017-08-24T08:29:00.662Z,17.45
2017-08-24T08:31:26.707Z,19.67
2017-08-24T08:33:52.975Z,20.17
2017-08-24T08:36:19.018Z,20.60
2017-08-24T08:38:45.062Z,22.02
2017-08-24T08:41:11.338Z,22.00
2017-08-24T08:43:37.412Z,22.20
2017-08-24T08:46:03.455Z,22.70
2017-08-24T08:48:29.523Z,24.05
2017-08-24T08:50:55.586Z,23.77
2017-08-24T08:53:21.636Z,25.42
2017-08-24T08:55:47.660Z,25.10
2017-08-24T08:58:13.684Z,27.90
2017-08-24T09:00:39.925Z,28.80
2017-08-24T09:03:05.946Z,28.40
2017-08-24T09:05:32.044Z,29.70
2017-08-24T09:07:58.139Z,28.77
2017-08-24T09:10:24.177Z,29.70
2017-08-24T09:12:50.206Z,28.75
2017-08-24T09:15:16.447Z,31.80
2017-08-24T09:17:42.466Z,34.33
2017-08-24T09:20:08.508Z,36.03
2017-08-24T09:22:34.551Z,38.28
2017-08-24T09:25:00.587Z,39.08
2017-08-24T09:27:26.610Z,36.72
2017-08-24T09:29:52.675Z,137.43
2017-08-24T09:32:18.710Z,105.80
2017-08-24T09:34:44.801Z,76.75
2017-08-24T09:37:11.157Z,44.63
2017-08-24T09:39:37.192Z,42.08
2017-08-24T09:42:03.253Z,43.08
2017-08-24T09:44:29.438Z,43.38
2017-08-24T09:46:55.472Z,42.65
2017-08-24T09:49:21.514Z,42.45
2017-08-24T09:51:47.670Z,44.22
2017-08-24T09:54:14.445Z,44.08
2017-08-24T09:56:40.467Z,43.40
2017-08-24T09:59:06.552Z,44.63
2017-08-24T10:01:32.591Z,41.88
2017-08-24T10:03:58.636Z,39.85
2017-08-24T10:06:24.662Z,39.97
2017-08-24T10:08:50.718Z,40.63
2017-08-24T10:11:16.874Z,40.17
2017-08-24T10:13:42.915Z,38.10
2017-08-24T10:16:08.974Z,38.60
2017-08-24T10:18:35.050Z,36.22
2017-08-24T10:21:01.083Z,35.40
2017-08-24T10:23:27.118Z,32.33
2017-08-24T10:25:53.442Z,32.20
2017-08-24T10:28:19.466Z,29.40
2017-08-24T10:30:45.508Z,31.53
2017-08-24T10:33:11.714Z,28.48
2017-08-24T10:35:37.840Z,28.27
2017-08-24T10:38:03.918Z,25.77
2017-08-24T10:40:29.980Z,25.60
2017-08-24T10:42:56.003Z,24.95
2017-08-24T10:45:22.035Z,24.12
2017-08-24T10:47:48.154Z,23.25
2017-08-24T10:50:14.232Z,25.08
2017-08-24T10:52:40.296Z,23.90
2017-08-24T10:55:06.353Z,25.65
2017-08-24T10:57:32.375Z,22.42
2017-08-24T10:59:58.451Z,26.60
2017-08-24T11:02:24.486Z,22.07
2017-08-24T11:04:50.515Z,18.67
2017-08-24T11:07:16.827Z,17.12
2017-08-24T11:09:42.842Z,16.65
2017-08-24T11:12:08.967Z,13.48
2017-08-24T11:14:35.059Z,11.85
2017-08-24T11:17:01.129Z,10.10
2017-08-24T11:19:27.201Z,9.88
2017-08-24T11:21:53.248Z,9.13
2017-08-24T11:24:19.284Z,8.48
2017-08-24T11:26:45.319Z,8.80
2017-08-24T11:29:12.470Z,8.18
2017-08-24T11:31:38.490Z,6.70
2017-08-24T11:34:04.524Z,6.82
2017-08-24T11:36:30.934Z,7.00
2017-08-24T11:38:57.098Z,6.05
2017-08-24T11:41:23.143Z,7.75
2017-08-24T11:43:49.186Z,5.70
2017-08-24T11:46:15.201Z,6.53
2017-08-24T11:48:41.271Z,6.60
2017-08-24T11:51:07.320Z,5.70
2017-08-24T11:53:33.363Z,6.30
2017-08-24T11:56:00.282Z,4.30
2017-08-24T11:58:26.572Z,4.60
2017-08-24T12:00:52.618Z,4.43
2017-08-24T12:03:18.659Z,4.20
2017-08-24T12:05:44.707Z,4.90
2017-08-24T12:08:10.727Z,4.70
2017-08-24T12:10:36.785Z,3.92
2017-08-24T12:13:02.886Z,4.03
2017-08-24T12:15:28.926Z,3.53
2017-08-24T12:17:55.010Z,3.20
2017-08-24T12:20:21.082Z,2.62
2017-08-24T12:22:47.104Z,2.90
2017-08-24T12:25:13.165Z,2.55
2017-08-24T12:27:39.207Z,2.30
2017-08-24T12:30:05.273Z,2.60
2017-08-24T12:32:31.321Z,2.60
2017-08-24T12:34:57.363Z,2.50
2017-08-24T12:37:23.593Z,2.80
2017-08-24T12:39:49.663Z,3.10
2017-08-24T12:42:15.731Z,2.55
2017-08-24T12:44:41.813Z,2.65
2017-08-24T12:47:07.817Z,2.60
2017-08-24T12:49:33.858Z,2.47
2017-08-24T12:52:00.004Z,2.12
2017-08-24T12:54:26.015Z,2.40
2017-08-24T12:56:52.058Z,2.20
2017-08-24T12:59:18.069Z,2.30
2017-08-24T13:01:44.114Z,2.30
2017-08-24T13:04:10.173Z,2.57
2017-08-24T13:06:36.246Z,2.30
2017-08-24T13:09:02.280Z,2.40
2017-08-24T13:11:28.344Z,2.40
2017-08-24T13:13:54.465Z,2.80
2017-08-24T13:16:20.494Z,2.35
2017-08-24T13:18:46.547Z,2.50
2017-08-24T13:21:12.769Z,2.00
2017-08-24T13:23:38.795Z,2.60
2017-08-24T13:26:05.042Z,2.33
2017-08-24T13:28:31.100Z,2.37
2017-08-24T13:30:57.119Z,2.40
2017-08-24T13:33:23.189Z,2.30
2017-08-24T13:35:49.207Z,2.42
2017-08-24T13:38:15.240Z,2.12
2017-08-24T13:40:41.246Z,2.20
2017-08-24T13:43:07.267Z,2.10
2017-08-24T13:45:33.457Z,1.90
2017-08-24T13:47:59.475Z,1.90
2017-08-24T13:50:25.522Z,1.70
2017-08-24T13:52:51.806Z,1.90
2017-08-24T13:55:17.817Z,1.80
2017-08-24T13:57:43.857Z,1.80
2017-08-24T14:00:10.110Z,2.00
2017-08-24T14:02:36.155Z,1.80
2017-08-24T14:05:02.184Z,1.70
2017-08-24T14:07:28.408Z,1.85
2017-08-24T14:09:54.429Z,1.90
2017-08-24T14:12:20.459Z,1.77
2017-08-24T14:14:46.806Z,1.85
2017-08-24T14:17:12.823Z,2.00
2017-08-24T14:19:38.866Z,2.00
2017-08-24T14:22:05.359Z,2.35
2017-08-24T14:24:31.411Z,1.90
2017-08-24T14:26:57.434Z,1.83
2017-08-24T14:29:23.766Z,2.30
2017-08-24T14:31:50.369Z,1.90
2017-08-24T14:34:16.383Z,2.20
2017-08-24T14:36:42.425Z,2.00
2017-08-24T14:39:08.448Z,1.90
2017-08-24T14:41:34.482Z,2.08
2017-08-24T14:44:00.530Z,1.90
2017-08-24T14:46:26.554Z,2.10
2017-08-24T14:48:52.584Z,1.90
2017-08-24T14:51:18.658Z,1.90
2017-08-24T14:53:44.690Z,2.10
2017-08-24T14:56:10.753Z,2.00
2017-08-24T14:58:37.045Z,2.08
2017-08-24T15:01:03.099Z,2.00
2017-08-24T15:03:29.121Z,2.03
2017-08-24T15:05:55.166Z,2.30
2017-08-24T15:08:21.194Z,2.05
2017-08-24T15:10:47.249Z,2.30
2017-08-24T15:13:13.549Z,2.00
2017-08-24T15:15:39.654Z,2.37
2017-08-24T15:18:05.893Z,2.05
2017-08-24T15:20:31.940Z,2.40
2017-08-24T15:22:57.974Z,2.30
2017-08-24T15:25:23.998Z,2.40
2017-08-24T15:27:50.055Z,2.53
2017-08-24T15:30:16.094Z,2.47
2017-08-24T15:32:42.171Z,2.50
2017-08-24T15:35:08.197Z,2.72
2017-08-24T15:37:34.279Z,2.42
2017-08-24T15:40:00.334Z,2.10
2017-08-24T15:42:26.349Z,2.60
2017-08-24T15:44:52.372Z,2.42
2017-08-24T15:47:18.445Z,2.60
2017-08-24T15:49:44.476Z,2.42
2017-08-24T15:52:10.562Z,2.50
2017-08-24T15:54:36.874Z,2.50
2017-08-24T15:57:02.911Z,2.70
2017-08-24T15:59:28.939Z,2.60
2017-08-24T16:01:54.985Z,3.50
2017-08-24T16:04:21.007Z,2.95
2017-08-24T16:06:47.065Z,2.97
2017-08-24T16:09:13.300Z,2.85
2017-08-24T16:11:39.342Z,2.90
2017-08-24T16:14:05.370Z,2.92
2017-08-24T16:16:31.782Z,3.33
2017-08-24T16:18:57.819Z,2.80
2017-08-24T16:21:23.852Z,2.70
2017-08-24T16:23:50.157Z,2.90
2017-08-24T16:26:16.174Z,3.60
2017-08-24T16:28:42.210Z,2.90
2017-08-24T16:31:08.273Z,3.00
2017-08-24T16:33:34.294Z,3.30
2017-08-24T16:36:00.314Z,3.20
2017-08-24T16:38:26.365Z,3.47
2017-08-24T16:40:52.424Z,3.10
2017-08-24T16:43:18.451Z,3.80
2017-08-24T16:45:44.489Z,3.40
2017-08-24T16:48:10.522Z,3.10
2017-08-24T16:50:36.566Z,4.12
2017-08-24T16:53:02.820Z,5.00
2017-08-24T16:55:28.841Z,7.87
2017-08-24T16:57:54.886Z,20.62
2017-08-24T17:00:20.903Z,40.33
2017-08-24T17:02:46.924Z,23.98
2017-08-24T17:05:12.962Z,12.25
2017-08-24T17:07:39.008Z,3.92
2017-08-24T17:10:05.018Z,3.28
2017-08-24T17:12:31.090Z,3.30
2017-08-24T17:14:57.143Z,3.30
2017-08-24T17:17:23.762Z,3.10
2017-08-24T17:19:50.066Z,2.93
2017-08-24T17:22:16.118Z,3.15
2017-08-24T17:24:42.136Z,3.05
2017-08-24T17:27:08.178Z,3.10
2017-08-24T17:29:34.226Z,3.07
2017-08-24T17:32:00.313Z,2.83
2017-08-24T17:34:26.374Z,3.00
2017-08-24T17:36:52.398Z,2.70
2017-08-24T17:39:18.418Z,3.07
2017-08-24T17:41:44.481Z,3.17
2017-08-24T17:44:10.514Z,3.30
2017-08-24T17:46:36.554Z,3.00
2017-08-24T17:49:02.939Z,3.10
2017-08-24T17:51:28.974Z,3.60
2017-08-24T17:53:55.008Z,2.40
2017-08-24T17:56:21.109Z,2.60
2017-08-24T17:58:47.214Z,2.70
2017-08-24T18:01:13.262Z,2.92
2017-08-24T18:03:39.339Z,2.70
2017-08-24T18:06:05.559Z,2.90
2017-08-24T18:08:31.592Z,2.80
2017-08-24T18:10:57.628Z,2.80
2017-08-24T18:13:23.740Z,2.63
2017-08-24T18:15:49.824Z,2.40
2017-08-24T18:18:16.120Z,2.67
2017-08-24T18:20:42.162Z,3.10
2017-08-24T18:23:08.215Z,2.80
2017-08-24T18:25:34.293Z,2.83
2017-08-24T18:28:00.317Z,2.80
2017-08-24T18:30:26.372Z,2.90
2017-08-24T18:32:52.471Z,2.90
2017-08-24T18:35:18.488Z,2.90
2017-08-24T18:37:44.546Z,2.90
2017-08-24T18:40:10.599Z,2.65
2017-08-24T18:42:36.631Z,2.90
2017-08-24T18:45:02.983Z,3.20
2017-08-24T18:47:29.027Z,3.10
2017-08-24T18:49:55.050Z,2.92
2017-08-24T18:52:21.168Z,3.50
2017-08-24T18:54:47.195Z,3.30
2017-08-24T18:57:13.228Z,3.30
2017-08-24T18:59:39.289Z,3.47
2017-08-24T19:02:05.330Z,3.40
2017-08-24T19:04:31.359Z,3.40
2017-08-24T19:06:57.433Z,3.60
2017-08-24T19:09:23.482Z,3.55
2017-08-24T19:11:49.558Z,3.80
2017-08-24T19:14:15.581Z,4.00
2017-08-24T19:16:41.637Z,3.90
2017-08-24T19:19:08.001Z,3.62
2017-08-24T19:21:34.026Z,3.80
2017-08-24T19:24:00.091Z,3.97
2017-08-24T19:26:26.139Z,4.07
2017-08-24T19:28:52.167Z,4.23
2017-08-24T19:31:18.226Z,4.35
2017-08-24T19:33:44.307Z,4.17
2017-08-24T19:36:10.327Z,4.15
2017-08-24T19:38:36.356Z,4.10
2017-08-24T19:41:02.503Z,3.70
2017-08-24T19:43:28.588Z,3.90
2017-08-24T19:45:54.644Z,4.28
2017-08-24T19:48:20.671Z,4.30
2017-08-24T19:50:46.722Z,5.25
2017-08-24T19:53:12.791Z,5.20
2017-08-24T19:55:38.900Z,4.10
2017-08-24T19:58:05.045Z,5.40
2017-08-24T20:00:31.150Z,4.13
2017-08-24T20:02:57.232Z,4.37
2017-08-24T20:05:23.314Z,4.40
2017-08-24T20:07:49.374Z,4.87
2017-08-24T20:10:15.471Z,4.50
2017-08-24T20:12:41.581Z,4.35
2017-08-24T20:15:07.619Z,5.20
2017-08-24T20:17:33.669Z,4.65
2017-08-24T20:19:59.754Z,4.40
2017-08-24T20:22:25.878Z,4.55
2017-08-24T20:24:51.902Z,4.60
2017-08-24T20:27:17.977Z,4.70
2017-08-24T20:29:43.994Z,4.45
2017-08-24T20:32:10.104Z,4.30
2017-08-24T20:34:36.362Z,5.00
2017-08-24T20:37:02.391Z,4.60
2017-08-24T20:39:28.419Z,4.35
2017-08-24T20:41:54.455Z,4.55
2017-08-24T20:44:20.551Z,4.93
2017-08-24T20:46:46.599Z,46.70
2017-08-24T20:49:12.662Z,38.75
2017-08-24T20:51:38.710Z,44.28
2017-08-24T20:54:04.735Z,34.25
2017-08-24T20:56:30.774Z,7.35
2017-08-24T20:58:56.814Z,4.90
2017-08-24T21:01:22.834Z,5.00
2017-08-24T21:03:48.871Z,5.25
2017-08-24T21:06:14.914Z,5.35
2017-08-24T21:08:41.112Z,5.70
2017-08-24T21:11:07.334Z,5.20
2017-08-24T21:13:33.370Z,5.70
2017-08-24T21:15:59.382Z,5.60
2017-08-24T21:18:25.679Z,5.68
2017-08-24T21:20:51.694Z,5.07
2017-08-24T21:23:17.726Z,5.30
2017-08-24T21:25:44.061Z,5.80
2017-08-24T21:28:10.123Z,7.20
2017-08-24T21:30:36.230Z,76.30
2017-08-24T21:33:02.832Z,13.60
2017-08-24T21:35:29.990Z,6.70
2017-08-24T21:37:56.815Z,7.82
2017-08-24T21:40:23.128Z,8.02
2017-08-24T21:42:49.498Z,7.60
2017-08-24T21:45:15.719Z,6.40
2017-08-24T21:47:42.711Z,6.33
2017-08-24T21:50:09.493Z,6.50
2017-08-24T21:52:35.912Z,6.60
2017-08-24T21:55:02.653Z,5.57
2017-08-24T21:57:28.923Z,5.97
2017-08-24T21:59:55.108Z,6.00
2017-08-24T22:02:21.494Z,6.20
2017-08-24T22:04:47.846Z,6.40
2017-08-24T22:07:14.028Z,6.10
2017-08-24T22:09:40.794Z,6.07
2017-08-24T22:12:06.917Z,6.00
2017-08-24T22:14:33.147Z,5.47
2017-08-24T22:16:59.530Z,5.80
2017-08-24T22:19:25.804Z,5.62
2017-08-24T22:21:52.032Z,5.80
2017-08-24T22:24:18.642Z,5.73
2017-08-24T22:26:45.140Z,6.00
2017-08-24T22:29:11.389Z,5.55
2017-08-24T22:31:37.485Z,5.90
2017-08-24T22:34:03.512Z,5.43
2017-08-24T22:36:29.545Z,5.50
2017-08-24T22:38:55.598Z,6.20
2017-08-24T22:41:21.635Z,5.80
2017-08-24T22:43:47.678Z,5.50
2017-08-24T22:46:13.730Z,5.75
2017-08-24T22:48:39.755Z,5.50
2017-08-24T22:51:05.779Z,5.90
2017-08-24T22:53:38.027Z,6.10
2017-08-24T22:56:10.113Z,6.63
2017-08-24T22:58:42.561Z,5.60
2017-08-24T23:01:14.584Z,5.72
2017-08-24T23:03:46.808Z,5.60
2017-08-24T23:06:12.863Z,5.40
2017-08-24T23:08:38.960Z,5.50
2017-08-24T23:11:05.021Z,6.32
2017-08-24T23:13:31.080Z,6.30
2017-08-24T23:15:57.110Z,5.70
2017-08-24T23:18:23.130Z,6.40
2017-08-24T23:20:49.186Z,6.28
2017-08-24T23:23:15.370Z,5.90
2017-08-24T23:25:41.407Z,6.30
2017-08-24T23:28:07.434Z,5.47
2017-08-24T23:30:34.266Z,5.57
2017-08-24T23:33:00.283Z,5.90
2017-08-24T23:35:26.342Z,5.00
2017-08-24T23:37:52.378Z,6.00
2017-08-24T23:40:18.410Z,6.00
2017-08-24T23:42:44.464Z,6.00
2017-08-24T23:45:10.489Z,5.90
2017-08-24T23:47:36.526Z,6.30
2017-08-24T23:50:02.590Z,5.70
2017-08-24T23:52:28.634Z,5.30
2017-08-24T23:54:54.680Z,6.20
2017-08-24T23:57:20.747Z,5.33
2017-08-24T23:59:46.790Z,5.10
